createdAt,value
2023-01-13T00:01:38.280Z,96499.66
2023-01-13T00:04:05.038Z,96499.72
2023-01-13T00:06:31.610Z,96495.47
2023-01-13T00:08:58.039Z,96498.00
2023-01-13T00:11:25.990Z,96497.25
2023-01-13T00:13:52.330Z,96499.84
2023-01-13T00:16:19.442Z,96493.88
2023-01-13T00:18:46.784Z,96497.31
2023-01-13T00:21:16.069Z,96490.47
2023-01-13T00:23:42.999Z,96484.59
2023-01-13T00:26:16.190Z,96493.22
2023-01-13T00:28:42.625Z,96478.66
2023-01-13T00:31:11.417Z,96489.84
2023-01-13T00:33:38.670Z,96483.13
2023-01-13T00:36:07.249Z,96466.09
2023-01-13T00:38:35.773Z,96474.66
2023-01-13T00:41:06.844Z,96479.81
2023-01-13T00:43:35.107Z,96467.88
2023-01-13T00:46:02.048Z,96470.41
2023-01-13T00:48:29.643Z,96470.41
2023-01-13T00:50:56.887Z,96465.41
2023-01-13T00:53:23.445Z,96459.38
2023-01-13T00:55:50.047Z,96461.09
2023-01-13T00:58:16.409Z,96450.03
2023-01-13T01:00:42.795Z,96459.44
2023-01-13T01:03:12.162Z,96459.38
2023-01-13T01:05:39.885Z,96456.00
2023-01-13T01:08:06.281Z,96451.69
2023-01-13T01:10:32.695Z,96447.50
2023-01-13T01:12:59.065Z,96440.72
2023-01-13T01:15:25.535Z,96445.78
2023-01-13T01:17:52.140Z,96437.28
2023-01-13T01:20:18.614Z,96439.84
2023-01-13T01:22:44.990Z,96437.31
2023-01-13T01:25:11.325Z,96450.13
2023-01-13T01:27:37.724Z,96436.53
2023-01-13T01:30:04.507Z,96433.97
2023-01-13T01:32:33.276Z,96429.75
2023-01-13T01:34:59.630Z,96423.72
2023-01-13T01:37:26.056Z,96428.78
2023-01-13T01:39:52.414Z,96427.91
2023-01-13T01:42:37.677Z,96426.19
2023-01-13T01:45:22.738Z,96432.97
2023-01-13T01:47:55.208Z,96412.63
2023-01-13T01:50:22.639Z,96413.50
2023-01-13T01:53:24.912Z,96412.59
2023-01-13T01:55:51.367Z,96416.72
2023-01-13T01:58:38.049Z,96411.69
2023-01-13T02:01:04.745Z,96407.34
2023-01-13T02:03:31.256Z,96407.34
2023-01-13T02:05:57.658Z,96399.75
2023-01-13T02:08:24.216Z,96397.22
2023-01-13T02:10:53.847Z,96398.94
2023-01-13T02:13:22.569Z,96390.44
2023-01-13T02:16:11.854Z,96391.38
2023-01-13T02:19:04.237Z,96384.59
2023-01-13T02:22:01.655Z,96393.94
2023-01-13T02:24:54.413Z,96386.34
2023-01-13T02:27:43.936Z,96388.84
2023-01-13T02:30:49.470Z,96378.88
2023-01-13T02:33:34.346Z,96388.13
2023-01-13T02:36:24.787Z,96389.00
2023-01-13T02:39:16.413Z,96372.97
2023-01-13T02:42:21.599Z,96379.00
2023-01-13T02:44:55.856Z,96380.72
2023-01-13T02:47:26.313Z,96369.69
2023-01-13T02:50:05.977Z,96368.00
2023-01-13T02:52:44.196Z,96359.50
2023-01-13T02:55:19.695Z,96361.19
2023-01-13T02:57:48.257Z,96353.53
2023-01-13T03:00:17.032Z,96357.75
2023-01-13T03:02:43.434Z,96356.00
2023-01-13T03:05:14.824Z,96362.00
2023-01-13T03:08:03.558Z,96371.38
2023-01-13T03:10:34.221Z,96374.78
2023-01-13T03:13:36.831Z,96358.72
2023-01-13T03:16:27.870Z,96350.19
2023-01-13T03:19:15.943Z,96346.81
2023-01-13T03:21:56.650Z,96351.09
2023-01-13T03:24:34.349Z,96360.47
2023-01-13T03:27:15.878Z,96359.59
2023-01-13T03:30:14.114Z,96353.72
2023-01-13T03:32:49.150Z,96351.19
2023-01-13T03:35:32.781Z,96345.25
2023-01-13T03:38:23.876Z,96351.25
2023-01-13T03:40:56.169Z,96336.75
2023-01-13T03:44:03.527Z,96341.78
2023-01-13T03:46:37.196Z,96338.44
2023-01-13T03:49:07.252Z,96345.19
2023-01-13T03:51:35.983Z,96351.16
2023-01-13T03:54:08.889Z,96342.75
2023-01-13T03:56:42.732Z,96346.06
2023-01-13T03:59:14.365Z,96349.41
2023-01-13T04:02:01.569Z,96346.06
2023-01-13T04:04:34.770Z,96338.47
2023-01-13T04:07:28.761Z,96349.50
2023-01-13T04:10:02.519Z,96341.03
2023-01-13T04:12:51.985Z,96336.75
2023-01-13T04:15:22.061Z,96339.41
2023-01-13T04:17:48.426Z,96340.22
2023-01-13T04:20:15.242Z,96336.81
2023-01-13T04:22:41.580Z,96343.59
2023-01-13T04:25:09.024Z,96335.94
2023-01-13T04:27:35.397Z,96338.53
2023-01-13T04:30:01.792Z,96339.34
2023-01-13T04:32:28.156Z,96338.50
2023-01-13T04:34:54.544Z,96341.13
2023-01-13T04:37:21.188Z,96343.63
2023-01-13T04:39:47.579Z,96341.94
2023-01-13T04:42:13.984Z,96341.94
2023-01-13T04:44:40.299Z,96335.94
2023-01-13T04:47:06.668Z,96338.59
2023-01-13T04:49:33.229Z,96325.03
2023-01-13T04:51:59.640Z,96325.88
2023-01-13T04:54:25.991Z,96319.94
2023-01-13T04:56:52.343Z,96320.88
2023-01-13T04:59:18.734Z,96321.69
2023-01-13T05:01:45.192Z,96303.78
2023-01-13T05:04:11.789Z,96305.53
2023-01-13T05:06:38.184Z,96317.50
2023-01-13T05:09:04.589Z,96314.06
2023-01-13T05:11:49.659Z,96319.13
2023-01-13T05:14:34.953Z,96317.47
2023-01-13T05:17:01.783Z,96320.88
2023-01-13T05:19:33.636Z,96320.88
2023-01-13T05:22:19.693Z,96314.13
2023-01-13T05:25:05.156Z,96315.03
2023-01-13T05:27:32.651Z,96308.22
2023-01-13T05:29:59.346Z,96309.03
2023-01-13T05:32:27.983Z,96319.25
2023-01-13T05:34:55.666Z,96309.91
2023-01-13T05:37:23.083Z,96321.81
2023-01-13T05:40:08.073Z,96312.50
2023-01-13T05:42:53.337Z,96315.00
2023-01-13T05:45:19.725Z,96316.72
2023-01-13T05:47:46.097Z,96313.31
2023-01-13T05:50:12.583Z,96315.03
2023-01-13T05:52:39.043Z,96314.19
2023-01-13T05:55:05.945Z,96309.13
2023-01-13T05:57:32.313Z,96309.09
2023-01-13T05:59:58.671Z,96312.53
2023-01-13T06:02:26.466Z,96310.06
2023-01-13T06:04:53.215Z,96307.53
2023-01-13T06:07:19.648Z,96304.94
2023-01-13T06:09:45.990Z,96300.72
2023-01-13T06:12:13.075Z,96306.69
2023-01-13T06:14:42.580Z,96308.38
2023-01-13T06:17:10.657Z,96305.84
2023-01-13T06:19:37.395Z,96305.84
2023-01-13T06:22:11.692Z,96305.84
2023-01-13T06:24:38.050Z,96302.38
2023-01-13T06:27:06.494Z,96301.56
2023-01-13T06:29:33.455Z,96299.88
2023-01-13T06:32:04.920Z,96310.09
2023-01-13T06:34:32.118Z,96301.59
2023-01-13T06:36:58.705Z,96298.16
2023-01-13T06:39:30.597Z,96298.19
2023-01-13T06:42:17.109Z,96299.91
2023-01-13T06:44:45.210Z,96298.19
2023-01-13T06:47:11.675Z,96303.34
2023-01-13T06:49:38.025Z,96305.91
2023-01-13T06:52:04.637Z,96301.59
2023-01-13T06:54:31.084Z,96305.91
2023-01-13T06:56:57.473Z,96308.41
2023-01-13T06:59:25.137Z,96310.13
2023-01-13T07:01:51.614Z,96317.00
2023-01-13T07:04:18.815Z,96311.03
2023-01-13T07:06:45.351Z,96307.63
2023-01-13T07:09:11.811Z,96308.47
2023-01-13T07:11:38.242Z,96313.63
2023-01-13T07:14:23.421Z,96315.34
2023-01-13T07:16:52.197Z,96305.09
2023-01-13T07:19:23.582Z,96308.50
2023-01-13T07:21:52.064Z,96307.66
2023-01-13T07:24:19.349Z,96311.03
2023-01-13T07:26:46.093Z,96304.22
2023-01-13T07:29:12.672Z,96312.72
2023-01-13T07:31:39.765Z,96309.28
2023-01-13T07:34:07.336Z,96312.69
2023-01-13T07:36:34.072Z,96310.13
2023-01-13T07:39:00.826Z,96312.75
2023-01-13T07:41:45.884Z,96314.44
2023-01-13T07:44:12.387Z,96309.31
2023-01-13T07:46:39.418Z,96299.94
2023-01-13T07:49:06.805Z,96301.69
2023-01-13T07:51:37.369Z,96303.41
2023-01-13T07:54:04.004Z,96307.69
2023-01-13T07:56:30.354Z,96300.81
2023-01-13T07:58:59.261Z,96299.16
2023-01-13T08:01:27.671Z,96299.16
2023-01-13T08:03:56.118Z,96305.19
2023-01-13T08:06:22.569Z,96315.44
2023-01-13T08:08:49.120Z,96311.13
2023-01-13T08:11:15.524Z,96312.81
2023-01-13T08:13:41.885Z,96318.81
2023-01-13T08:16:11.490Z,96314.63
2023-01-13T08:18:39.128Z,96318.03
2023-01-13T08:21:09.026Z,96320.59
2023-01-13T08:23:36.090Z,96320.63
2023-01-13T08:26:07.106Z,96319.81
2023-01-13T08:28:33.930Z,96331.72
2023-01-13T08:31:02.401Z,96329.16
2023-01-13T08:33:29.563Z,96342.78
2023-01-13T08:35:56.277Z,96334.34
2023-01-13T08:38:23.634Z,96341.13
2023-01-13T08:40:50.660Z,96336.91
2023-01-13T08:43:16.998Z,96322.44
2023-01-13T08:45:43.444Z,96319.88
2023-01-13T08:48:09.939Z,96319.03
2023-01-13T08:50:36.286Z,96320.75
2023-01-13T08:53:02.709Z,96319.09
2023-01-13T08:55:29.101Z,96317.34
2023-01-13T08:58:06.449Z,96327.59
2023-01-13T09:00:40.900Z,96325.06
2023-01-13T09:03:07.261Z,96311.47
2023-01-13T09:05:35.342Z,96316.53
2023-01-13T09:08:01.711Z,96307.19
2023-01-13T09:10:28.095Z,96316.56
2023-01-13T09:13:12.609Z,96312.31
2023-01-13T09:15:44.940Z,96323.38
2023-01-13T09:18:12.250Z,96313.13
2023-01-13T09:20:39.335Z,96324.19
2023-01-13T09:23:08.803Z,96326.78
2023-01-13T09:25:39.048Z,96335.28
2023-01-13T09:28:05.891Z,96333.59
2023-01-13T09:30:32.377Z,96339.56
2023-01-13T09:33:18.271Z,96351.50
2023-01-13T09:35:44.687Z,96339.63
2023-01-13T09:38:11.090Z,96342.22
2023-01-13T09:40:39.592Z,96339.66
2023-01-13T09:43:36.783Z,96355.84
2023-01-13T09:46:34.204Z,96344.72
2023-01-13T09:49:03.476Z,96346.41
2023-01-13T09:51:45.961Z,96350.63
2023-01-13T09:54:27.805Z,96343.81
2023-01-13T09:56:54.229Z,96342.97
2023-01-13T09:59:20.657Z,96328.50
2023-01-13T10:01:53.108Z,96334.47
2023-01-13T10:04:19.744Z,96329.38
2023-01-13T10:06:52.484Z,96333.66
2023-01-13T10:09:25.699Z,96322.63
2023-01-13T10:12:14.525Z,96314.97
2023-01-13T10:14:54.803Z,96311.63
2023-01-13T10:17:32.313Z,96301.44
2023-01-13T10:20:17.082Z,96303.19
2023-01-13T10:22:59.137Z,96303.16
2023-01-13T10:25:40.273Z,96302.34
2023-01-13T10:28:13.079Z,96293.81
2023-01-13T10:30:42.195Z,96292.97
2023-01-13T10:33:34.625Z,96291.25
2023-01-13T10:36:14.360Z,96285.31
2023-01-13T10:38:45.982Z,96282.78
2023-01-13T10:41:15.107Z,96291.28
2023-01-13T10:44:07.263Z,96295.53
2023-01-13T10:46:49.900Z,96282.75
2023-01-13T10:49:36.561Z,96287.88
2023-01-13T10:52:23.661Z,96287.03
2023-01-13T10:54:54.934Z,96283.59
2023-01-13T10:57:27.202Z,96288.72
2023-01-13T10:59:54.870Z,96274.22
2023-01-13T11:02:30.673Z,96280.22
2023-01-13T11:04:58.085Z,96276.78
2023-01-13T11:07:34.455Z,96282.75
2023-01-13T11:10:09.834Z,96279.34
2023-01-13T11:12:51.897Z,96281.91
2023-01-13T11:15:25.047Z,96287.03
2023-01-13T11:18:00.488Z,96282.75
2023-01-13T11:20:42.674Z,96298.94
2023-01-13T11:23:21.845Z,96285.28
2023-01-13T11:25:54.616Z,96292.06
2023-01-13T11:28:29.367Z,96299.69
2023-01-13T11:31:25.428Z,96307.34
2023-01-13T11:33:59.885Z,96316.69
2023-01-13T11:36:39.070Z,96318.41
2023-01-13T11:39:21.312Z,96321.81
2023-01-13T11:42:15.573Z,96331.16
2023-01-13T11:44:58.481Z,96342.22
2023-01-13T11:47:26.872Z,96354.09
2023-01-13T11:49:53.760Z,96363.22
2023-01-13T11:52:47.765Z,96365.47
2023-01-13T11:55:34.780Z,96360.31
2023-01-13T11:58:26.708Z,96360.97
2023-01-13T12:01:05.021Z,96361.84
2023-01-13T12:03:45.357Z,96356.75
2023-01-13T12:06:20.626Z,96339.78
2023-01-13T12:08:47.543Z,96346.53
2023-01-13T12:11:27.828Z,96338.91
2023-01-13T12:14:17.496Z,96338.97
2023-01-13T12:16:50.545Z,96334.69
2023-01-13T12:19:32.278Z,96340.63
2023-01-13T12:22:20.468Z,96338.09
2023-01-13T12:24:58.061Z,96337.22
2023-01-13T12:27:44.865Z,96329.56
2023-01-13T12:30:45.722Z,96329.63
2023-01-13T12:33:28.835Z,96338.13
2023-01-13T12:36:07.473Z,96342.34
2023-01-13T12:38:45.841Z,96344.06
2023-01-13T12:41:36.700Z,96350.81
2023-01-13T12:44:19.283Z,96356.75
2023-01-13T12:46:58.737Z,96359.25
2023-01-13T12:49:35.320Z,96353.16
2023-01-13T12:52:12.466Z,96350.66
2023-01-13T12:54:44.909Z,96354.97
2023-01-13T12:57:21.682Z,96355.78
2023-01-13T13:00:00.052Z,96356.59
2023-01-13T13:02:38.220Z,96351.50
2023-01-13T13:05:27.689Z,96348.94
2023-01-13T13:08:21.456Z,96342.16
2023-01-13T13:10:57.868Z,96353.16
2023-01-13T13:13:40.954Z,96355.69
2023-01-13T13:16:25.998Z,96363.41
2023-01-13T13:18:53.442Z,96376.97
2023-01-13T13:21:19.805Z,96371.00
2023-01-13T13:24:03.164Z,96370.94
2023-01-13T13:26:45.521Z,96361.63
2023-01-13T13:29:37.039Z,96365.06
2023-01-13T13:32:23.861Z,96358.28
2023-01-13T13:35:14.044Z,96360.88
2023-01-13T13:38:08.232Z,96354.13
2023-01-13T13:40:59.099Z,96354.13
2023-01-13T13:43:45.909Z,96347.25
2023-01-13T13:46:48.877Z,96356.66
2023-01-13T13:49:16.366Z,96351.50
2023-01-13T13:52:03.302Z,96373.63
2023-01-13T13:54:31.416Z,96370.09
2023-01-13T13:56:59.097Z,96377.69
2023-01-13T13:59:28.066Z,96378.56
2023-01-13T14:02:03.779Z,96376.03
2023-01-13T14:04:33.269Z,96374.34
2023-01-13T14:07:04.807Z,96384.59
2023-01-13T14:09:41.351Z,96394.69
2023-01-13T14:12:20.132Z,96409.19
2023-01-13T14:14:47.880Z,96416.78
2023-01-13T14:17:34.471Z,96421.88
2023-01-13T14:20:07.871Z,96409.97
2023-01-13T14:22:34.562Z,96419.34
2023-01-13T14:25:02.019Z,96419.44
2023-01-13T14:27:30.583Z,96416.91
2023-01-13T14:29:59.969Z,96442.31
2023-01-13T14:32:33.558Z,96429.50
2023-01-13T14:35:00.053Z,96439.72
2023-01-13T14:37:37.263Z,96443.97
2023-01-13T14:40:04.108Z,96446.53
2023-01-13T14:42:31.563Z,96451.59
2023-01-13T14:44:58.544Z,96437.81
2023-01-13T14:47:29.164Z,96452.22
2023-01-13T14:50:10.530Z,96458.97
2023-01-13T14:52:50.448Z,96470.94
2023-01-13T14:55:38.573Z,96476.03
2023-01-13T14:58:22.925Z,96474.25
2023-01-13T15:00:51.308Z,96474.25
2023-01-13T15:03:20.509Z,96482.59
2023-01-13T15:05:49.912Z,96486.00
2023-01-13T15:08:17.200Z,96503.88
2023-01-13T15:10:59.614Z,96492.78
2023-01-13T15:13:28.960Z,96496.06
2023-01-13T15:15:57.623Z,96502.91
2023-01-13T15:18:24.118Z,96500.19
2023-01-13T15:20:53.401Z,96504.41
2023-01-13T15:23:20.546Z,96501.88
2023-01-13T15:25:48.166Z,96493.31
2023-01-13T15:28:19.969Z,96495.06
2023-01-13T15:30:47.293Z,96494.16
2023-01-13T15:33:14.725Z,96500.97
2023-01-13T15:35:49.886Z,96506.91
2023-01-13T15:38:18.915Z,96507.66
2023-01-13T15:40:46.818Z,96517.72
2023-01-13T15:43:50.015Z,96517.69
2023-01-13T15:46:38.939Z,96528.56
2023-01-13T15:49:23.440Z,96534.53
2023-01-13T15:51:49.986Z,96530.19
2023-01-13T15:54:16.430Z,96539.44
2023-01-13T15:56:42.780Z,96549.53
2023-01-13T15:59:17.328Z,96556.28
2023-01-13T16:01:44.358Z,96570.63
2023-01-13T16:04:10.699Z,96575.81
2023-01-13T16:06:37.248Z,96578.44
2023-01-13T16:09:05.557Z,96586.09
2023-01-13T16:11:31.988Z,96590.25
2023-01-13T16:13:58.588Z,96591.88
2023-01-13T16:16:26.858Z,96591.00
2023-01-13T16:18:53.346Z,96603.63
2023-01-13T16:21:20.904Z,96612.03
2023-01-13T16:23:48.877Z,96614.59
2023-01-13T16:26:26.421Z,96621.41
2023-01-13T16:28:55.469Z,96623.66
2023-01-13T16:31:21.842Z,96634.78
2023-01-13T16:33:48.444Z,96630.59
2023-01-13T16:36:17.088Z,96630.56
2023-01-13T16:38:43.698Z,96623.03
2023-01-13T16:41:10.381Z,96626.31
2023-01-13T16:43:37.533Z,96633.97
2023-01-13T16:46:16.451Z,96636.47
2023-01-13T16:48:42.889Z,96642.22
2023-01-13T16:51:09.353Z,96639.66
2023-01-13T16:53:35.808Z,96639.53
2023-01-13T16:56:02.231Z,96643.94
2023-01-13T16:58:28.703Z,96643.94
2023-01-13T17:00:55.325Z,96648.16
2023-01-13T17:03:21.876Z,96647.22
2023-01-13T17:05:48.302Z,96659.16
2023-01-13T17:08:17.652Z,96657.47
2023-01-13T17:10:45.715Z,96668.56
2023-01-13T17:13:16.447Z,96666.88
2023-01-13T17:15:44.393Z,96669.25
2023-01-13T17:18:13.075Z,96678.50
2023-01-13T17:20:39.506Z,96683.69
2023-01-13T17:23:05.940Z,96692.97
2023-01-13T17:25:32.379Z,96695.59
2023-01-13T17:27:59.002Z,96694.00
2023-01-13T17:30:25.371Z,96684.69
2023-01-13T17:32:51.809Z,96699.13
2023-01-13T17:35:24.482Z,96706.66
2023-01-13T17:37:54.200Z,96714.34
2023-01-13T17:40:20.888Z,96714.16
2023-01-13T17:42:47.338Z,96718.94
2023-01-13T17:45:13.828Z,96725.97
2023-01-13T17:47:40.276Z,96728.56
2023-01-13T17:50:07.207Z,96719.97
2023-01-13T17:52:34.388Z,96727.47
2023-01-13T17:55:00.821Z,96731.13
2023-01-13T17:57:28.336Z,96719.06
2023-01-13T17:59:54.877Z,96727.34
2023-01-13T18:02:21.403Z,96732.50
2023-01-13T18:04:47.998Z,96734.91
2023-01-13T18:07:14.360Z,96737.50
2023-01-13T18:09:40.773Z,96739.91
2023-01-13T18:12:07.338Z,96745.72
2023-01-13T18:14:34.601Z,96737.28
2023-01-13T18:17:01.244Z,96731.38
2023-01-13T18:19:46.397Z,96735.47
2023-01-13T18:22:32.803Z,96735.13
2023-01-13T18:25:18.095Z,96739.34
2023-01-13T18:27:44.711Z,96750.38
2023-01-13T18:30:12.404Z,96754.63
2023-01-13T18:32:39.344Z,96760.38
2023-01-13T18:35:10.192Z,96762.81
2023-01-13T18:37:39.867Z,96761.91
2023-01-13T18:40:09.322Z,96771.00
2023-01-13T18:42:51.392Z,96773.50
2023-01-13T18:45:24.135Z,96783.50
2023-01-13T18:47:53.043Z,96778.44
2023-01-13T18:50:19.514Z,96778.28
2023-01-13T18:52:46.018Z,96772.31
2023-01-13T18:55:12.875Z,96774.00
2023-01-13T18:57:42.667Z,96774.91
2023-01-13T19:00:16.656Z,96767.13
2023-01-13T19:02:44.386Z,96784.75
2023-01-13T19:05:10.999Z,96781.09
2023-01-13T19:07:37.465Z,96793.00
2023-01-13T19:10:05.531Z,96787.00
2023-01-13T19:12:33.588Z,96793.78
2023-01-13T19:15:01.919Z,96783.59
2023-01-13T19:17:33.468Z,96783.56
2023-01-13T19:20:00.535Z,96793.81
2023-01-13T19:22:30.760Z,96793.81
2023-01-13T19:24:58.389Z,96797.81
2023-01-13T19:27:27.421Z,96808.91
2023-01-13T19:29:57.375Z,96808.03
2023-01-13T19:32:24.153Z,96806.31
2023-01-13T19:34:51.063Z,96809.75
2023-01-13T19:37:18.740Z,96811.56
2023-01-13T19:39:45.233Z,96809.88
2023-01-13T19:42:30.855Z,96801.28
2023-01-13T19:45:16.115Z,96802.88
2023-01-13T19:47:45.075Z,96800.34
2023-01-13T19:50:13.445Z,96801.75
2023-01-13T19:52:40.456Z,96818.00
2023-01-13T19:55:07.125Z,96823.84
2023-01-13T19:57:33.614Z,96818.88
2023-01-13T20:00:00.187Z,96828.22
2023-01-13T20:02:31.427Z,96827.25
2023-01-13T20:04:59.135Z,96832.31
2023-01-13T20:07:28.138Z,96837.28
2023-01-13T20:09:56.338Z,96838.16
2023-01-13T20:12:24.368Z,96838.25
2023-01-13T20:14:51.213Z,96843.13
2023-01-13T20:17:20.319Z,96849.91
2023-01-13T20:19:46.878Z,96865.78
2023-01-13T20:22:14.017Z,96865.72
2023-01-13T20:24:40.545Z,96857.19
2023-01-13T20:27:07.299Z,96863.06
2023-01-13T20:29:33.895Z,96861.22
2023-01-13T20:32:00.380Z,96867.34
2023-01-13T20:34:26.836Z,96868.94
2023-01-13T20:36:53.529Z,96868.19
2023-01-13T20:39:23.430Z,96874.22
2023-01-13T20:42:08.587Z,96873.31
2023-01-13T20:44:35.391Z,96879.38
2023-01-13T20:47:02.818Z,96896.34
2023-01-13T20:49:30.274Z,96891.97
2023-01-13T20:51:57.748Z,96887.81
2023-01-13T20:54:25.020Z,96905.69
2023-01-13T20:56:51.428Z,96902.22
2023-01-13T20:59:17.926Z,96909.94
2023-01-13T21:01:44.432Z,96916.84
2023-01-13T21:04:11.114Z,96916.91
2023-01-13T21:06:37.610Z,96915.22
2023-01-13T21:09:04.142Z,96932.94
2023-01-13T21:11:49.179Z,96932.94
2023-01-13T21:14:37.529Z,96934.50
2023-01-13T21:17:04.245Z,96927.69
2023-01-13T21:19:30.716Z,96941.13
2023-01-13T21:21:57.230Z,96939.56
2023-01-13T21:24:24.760Z,96934.28
2023-01-13T21:27:00.624Z,96935.81
2023-01-13T21:29:27.039Z,96934.84
2023-01-13T21:31:54.371Z,96946.06
2023-01-13T21:34:20.908Z,96946.94
2023-01-13T21:36:47.299Z,96937.53
2023-01-13T21:39:16.072Z,96930.03
2023-01-13T21:42:01.205Z,96934.38
2023-01-13T21:44:46.138Z,96928.47
2023-01-13T21:47:36.134Z,96938.69
2023-01-13T21:50:04.451Z,96951.09
2023-01-13T21:52:30.782Z,96952.88
2023-01-13T21:55:15.555Z,96953.06
2023-01-13T21:57:45.436Z,96967.81
2023-01-13T22:00:12.324Z,96961.13
2023-01-13T22:02:38.791Z,96961.38
2023-01-13T22:05:08.968Z,96953.75
2023-01-13T22:07:37.074Z,96965.56
2023-01-13T22:10:05.758Z,96962.97
2023-01-13T22:12:32.515Z,96961.13
2023-01-13T22:14:58.879Z,96962.91
2023-01-13T22:17:27.575Z,96955.16
2023-01-13T22:19:57.059Z,96960.25
2023-01-13T22:22:24.931Z,96970.41
2023-01-13T22:24:53.002Z,96967.88
2023-01-13T22:27:22.200Z,96978.28
2023-01-13T22:29:49.614Z,96973.00
2023-01-13T22:32:16.751Z,96977.56
2023-01-13T22:34:43.277Z,96979.88
2023-01-13T22:37:10.104Z,96976.47
2023-01-13T22:39:36.551Z,96978.22
2023-01-13T22:42:03.401Z,96960.19
2023-01-13T22:44:29.869Z,96982.47
2023-01-13T22:46:56.252Z,96975.59
2023-01-13T22:49:23.010Z,96981.25
2023-01-13T22:51:49.458Z,96981.28
2023-01-13T22:54:18.177Z,96983.03
2023-01-13T22:56:44.577Z,96989.78
2023-01-13T22:59:13.219Z,96997.53
2023-01-13T23:01:40.881Z,96990.72
2023-01-13T23:04:07.530Z,96982.91
2023-01-13T23:06:34.818Z,96981.91
2023-01-13T23:09:01.619Z,96991.25
2023-01-13T23:11:30.275Z,96994.66
2023-01-13T23:13:59.631Z,96994.53
2023-01-13T23:16:27.924Z,96993.50
2023-01-13T23:18:54.496Z,97000.41
2023-01-13T23:21:26.774Z,97009.75
2023-01-13T23:23:54.124Z,97010.66
2023-01-13T23:26:21.489Z,97007.22
2023-01-13T23:28:48.248Z,97010.31
2023-01-13T23:31:20.807Z,97011.25
2023-01-13T23:33:48.487Z,97012.72
2023-01-13T23:36:20.658Z,97016.22
2023-01-13T23:38:47.690Z,97029.09
2023-01-13T23:41:16.908Z,97023.00
2023-01-13T23:43:43.773Z,97026.34
2023-01-13T23:46:12.701Z,97034.16
2023-01-13T23:48:39.472Z,97028.22
2023-01-13T23:51:10.458Z,97043.22
2023-01-13T23:53:43.733Z,97031.22
2023-01-13T23:56:16.516Z,97028.63
2023-01-13T23:58:43.983Z,97038.66
